National Weather Service Raw Text Product

Displaying AFOS PIL: TAFMCW Received: 2017-10-13 13:15 UTC


946 
FTUS43 KDMX 131315 AAA
TAFMCW
TAF AMD
KMCW 131315Z 1313/1412 35006KT 6SM BR BKN005
     FM131500 01007KT P6SM SCT025 BKN035
     FM132000 02008KT P6SM VCSH OVC040
     FM132300 04007KT P6SM BKN060=